Time;durP1;ratioP1;P1;durP2;ratioP2;P2;SDS_P1;SDS_P2;PMS_P1;PMS_P2;Temp;Humidity;BMP_temperature;BMP_pressure;BME280_temperature;BME280_humidity;BME280_pressure;Samples;Min_cycle;Max_cycle;Signal;HPM_P1;HPM_P2
2023/01/01 00:01:27;;;;;;;13.50;4.15;;;;;;;16.03;100.00;100773.28;5368686;27;20038;-80
2023/01/01 00:03:59;;;;;;;14.55;4.50;;;;;;;16.05;100.00;100773.91;5368890;27;20019;-80
2023/01/01 00:06:30;;;;;;;15.55;3.72;;;;;;;16.13;100.00;100781.94;5366879;27;20027;-80
2023/01/01 00:11:51;;;;;;;12.00;3.47;;;;;;;15.97;100.00;100800.88;5367519;27;20031;-80
2023/01/01 00:14:23;;;;;;;7.30;3.53;;;;;;;15.86;100.00;100780.63;5368770;27;20503;-80
2023/01/01 00:16:55;;;;;;;13.63;3.47;;;;;;;16.01;100.00;100784.22;5369215;27;20022;-80
2023/01/01 00:19:26;;;;;;;14.45;4.57;;;;;;;16.00;100.00;100793.28;5354095;27;20070;-80
2023/01/01 00:21:57;;;;;;;12.90;3.38;;;;;;;15.93;100.00;100789.63;5345716;27;20063;-81
2023/01/01 00:24:29;;;;;;;10.63;4.00;;;;;;;15.87;100.00;100791.19;5347120;27;20024;-81
2023/01/01 00:27:00;;;;;;;9.18;3.40;;;;;;;15.88;100.00;100808.16;5346620;27;20024;-81
2023/01/01 00:29:31;;;;;;;10.57;2.72;;;;;;;15.90;100.00;100814.22;5346369;27;20031;-80
2023/01/01 00:32:03;;;;;;;8.45;3.47;;;;;;;15.99;100.00;100777.34;5343613;27;20024;-80
2023/01/01 00:34:34;;;;;;;12.68;3.63;;;;;;;15.96;100.00;100788.47;5325934;28;20031;-80
2023/01/01 00:37:06;;;;;;;13.50;3.13;;;;;;;15.90;100.00;100802.59;5333473;27;20053;-81
2023/01/01 00:39:37;;;;;;;12.70;4.75;;;;;;;15.94;100.00;100794.00;5336650;27;34344;-80
2023/01/01 00:42:20;;;;;;;11.48;3.40;;;;;;;15.95;100.00;100784.09;5342394;27;20024;-79
2023/01/01 00:44:51;;;;;;;9.35;3.53;;;;;;;15.82;100.00;100806.19;5341800;27;20042;-79
2023/01/01 00:47:23;;;;;;;12.65;3.50;;;;;;;15.65;100.00;100782.03;5343796;27;20179;-81
2023/01/01 00:49:54;;;;;;;9.27;3.40;;;;;;;15.71;100.00;100802.03;5343242;27;20035;-80
2023/01/01 00:52:25;;;;;;;13.85;4.85;;;;;;;15.81;100.00;100781.16;5346933;27;20368;-80
2023/01/01 00:54:56;;;;;;;27.70;14.38;;;;;;;15.88;100.00;100775.88;5335211;27;32042;-80
2023/01/01 00:57:28;;;;;;;11.13;6.55;;;;;;;15.89;100.00;100809.84;5335508;27;20027;-80
2023/01/01 00:59:59;;;;;;;10.57;4.20;;;;;;;15.87;100.00;100790.38;5342783;27;20131;-80
2023/01/01 01:02:30;;;;;;;13.50;4.45;;;;;;;15.86;100.00;100802.13;5338000;27;20035;-80
2023/01/01 01:05:03;;;;;;;11.35;3.53;;;;;;;15.75;100.00;100781.88;5345587;27;20024;-79
2023/01/01 01:07:36;;;;;;;28.50;16.48;;;;;;;15.68;100.00;100808.59;5314704;28;20020;-80
2023/01/01 01:10:08;;;;;;;15.98;5.85;;;;;;;15.69;100.00;100817.50;5324157;28;20043;-80
2023/01/01 01:12:39;;;;;;;29.15;14.60;;;;;;;15.80;100.00;100816.31;5344139;27;20038;-80
2023/01/01 01:15:11;;;;;;;9.68;2.60;;;;;;;15.67;100.00;100788.09;5334581;27;20079;-80
2023/01/01 01:17:43;;;;;;;7.07;2.33;;;;;;;15.62;100.00;100774.34;5325833;27;20024;-80
2023/01/01 01:20:14;;;;;;;8.90;2.42;;;;;;;15.60;100.00;100794.34;5323692;27;20558;-81
2023/01/01 01:22:45;;;;;;;8.30;2.47;;;;;;;15.65;100.00;100792.81;5324732;28;20095;-80
2023/01/01 01:25:17;;;;;;;6.15;2.33;;;;;;;15.66;100.00;100796.34;5334248;27;20107;-79
2023/01/01 01:27:48;;;;;;;11.35;2.20;;;;;;;15.54;100.00;100806.66;5314689;27;20039;-80
2023/01/01 01:30:19;;;;;;;10.10;2.42;;;;;;;15.67;100.00;100803.38;5342174;27;20028;-80
2023/01/01 01:32:51;;;;;;;7.25;3.38;;;;;;;15.60;100.00;100826.63;5345056;27;20064;-81
2023/01/01 01:35:22;;;;;;;8.57;3.13;;;;;;;15.49;100.00;100827.84;5335155;27;20020;-81
2023/01/01 01:37:53;;;;;;;10.95;2.55;;;;;;;15.48;100.00;100818.94;5343821;27;20066;-80
2023/01/01 01:40:25;;;;;;;9.40;2.58;;;;;;;15.38;100.00;100822.88;5338584;27;20400;-81
2023/01/01 01:42:56;;;;;;;8.60;2.95;;;;;;;15.41;100.00;100817.13;5349972;27;20024;-80
2023/01/01 01:45:27;;;;;;;7.90;2.67;;;;;;;15.37;100.00;100827.38;5342860;27;20054;-80
2023/01/01 01:47:59;;;;;;;7.75;2.10;;;;;;;15.37;100.00;100813.13;5341888;27;20502;-81
2023/01/01 01:50:36;;;;;;;8.43;2.30;;;;;;;15.41;100.00;100828.72;5321865;27;20444;-80
2023/01/01 01:53:30;;;;;;;9.38;2.42;;;;;;;15.36;100.00;100836.47;5344624;27;20129;-80
2023/01/01 01:56:06;;;;;;;8.20;2.75;;;;;;;15.22;100.00;100853.31;5347861;27;20035;-79
2023/01/01 01:58:38;;;;;;;7.40;2.40;;;;;;;15.29;100.00;100846.25;5349193;27;20023;-80
2023/01/01 02:01:09;;;;;;;7.40;2.22;;;;;;;15.22;100.00;100839.91;5339135;27;20077;-79
2023/01/01 02:04:01;;;;;;;9.45;3.03;;;;;;;15.23;100.00;100853.13;5339663;27;20023;-79
2023/01/01 02:06:34;;;;;;;7.75;2.00;;;;;;;15.28;100.00;100863.38;5348630;27;20131;-79
2023/01/01 02:09:07;;;;;;;5.18;2.10;;;;;;;15.19;100.00;100864.41;5349142;27;20011;-80
2023/01/01 02:11:38;;;;;;;7.07;2.25;;;;;;;15.13;100.00;100874.00;5347461;27;20030;-80
2023/01/01 02:14:10;;;;;;;8.75;2.20;;;;;;;15.09;100.00;100854.72;5349085;27;20020;-80
2023/01/01 02:16:57;;;;;;;9.57;2.33;;;;;;;15.15;100.00;100842.44;5330746;27;20032;-79
2023/01/01 02:19:36;;;;;;;;;;;;;;;15.21;100.00;100865.91;5338195;27;20036;-80
2023/01/01 02:22:15;;;;;;;7.50;2.10;;;;;;;15.20;100.00;100860.69;5328995;27;19916;-79
2023/01/01 02:25:11;;;;;;;11.88;2.90;;;;;;;15.21;100.00;100846.25;5345612;27;20059;-80
2023/01/01 02:28:07;;;;;;;7.55;2.08;;;;;;;15.20;100.00;100853.50;5332801;27;20097;-80
2023/01/01 02:30:43;;;;;;;6.55;2.10;;;;;;;15.18;100.00;100851.97;5326300;28;20504;-80
2023/01/01 02:33:19;;;;;;;7.90;2.38;;;;;;;15.13;100.00;100847.13;5327302;28;20388;-79
2023/01/01 02:35:58;;;;;;;6.43;2.03;;;;;;;15.09;100.00;100864.59;5327316;27;20024;-80
2023/01/01 02:38:34;;;;;;;5.70;2.10;;;;;;;15.08;100.00;100866.44;5343948;27;20046;-80
2023/01/01 02:41:11;;;;;;;5.53;1.98;;;;;;;15.03;100.00;100858.06;5320424;27;20085;-80
2023/01/01 02:43:44;;;;;;;;;;;;;;;15.09;100.00;100864.59;5341590;27;20035;-80
2023/01/01 02:46:15;;;;;;;7.25;2.13;;;;;;;15.07;100.00;100859.38;5348511;27;20712;-80
2023/01/01 02:48:48;;;;;;;7.07;1.95;;;;;;;15.05;100.00;100849.84;5330051;27;20039;-80
2023/01/01 02:51:44;;;;;;;8.77;2.47;;;;;;;15.05;100.00;100852.53;5328290;27;20030;-80
2023/01/01 02:54:24;;;;;;;9.35;2.35;;;;;;;15.03;100.00;100867.97;5341395;27;20452;-80
2023/01/01 02:57:34;;;;;;;5.88;2.00;;;;;;;14.98;100.00;100881.91;5339824;27;20478;-81
2023/01/01 03:00:23;;;;;;;8.35;2.38;;;;;;;14.93;100.00;100873.50;5324009;27;20036;-80
2023/01/01 03:03:35;;;;;;;8.27;2.38;;;;;;;14.94;100.00;100848.34;5326534;27;20081;-80
2023/01/01 03:06:27;;;;;;;5.75;1.90;;;;;;;14.89;100.00;100875.72;5346306;27;20035;-80
2023/01/01 03:09:24;;;;;;;8.15;2.13;;;;;;;14.87;100.00;100882.28;5326453;28;20016;-80
2023/01/01 03:12:01;;;;;;;7.03;1.98;;;;;;;14.79;100.00;100877.72;5341988;27;20051;-80
2023/01/01 03:14:44;;;;;;;5.13;1.85;;;;;;;14.69;100.00;100885.97;5339541;27;20456;-79
2023/01/01 03:17:34;;;;;;;5.97;1.98;;;;;;;14.78;100.00;100892.19;5344440;27;20464;-80
2023/01/01 03:20:16;;;;;;;6.30;2.20;;;;;;;14.80;100.00;100892.84;5328218;27;20487;-80
2023/01/01 03:22:50;;;;;;;7.00;1.70;;;;;;;14.66;100.00;100899.72;5344179;27;20032;-80
2023/01/01 03:25:26;;;;;;;5.72;1.70;;;;;;;14.74;100.00;100902.41;5346695;27;20084;-79
2023/01/01 03:28:10;;;;;;;9.80;1.83;;;;;;;14.80;100.00;100884.78;5336314;27;20032;-80
2023/01/01 03:30:44;;;;;;;12.93;2.47;;;;;;;14.78;100.00;100894.88;5327122;27;20028;-81
2023/01/01 03:33:28;;;;;;;7.45;2.42;;;;;;;14.68;100.00;100892.34;5339407;27;20119;-80
2023/01/01 03:36:08;;;;;;;6.32;2.03;;;;;;;14.69;100.00;100888.66;5346352;27;20023;-80
2023/01/01 03:38:49;;;;;;;7.78;1.95;;;;;;;14.74;100.00;100893.50;5347765;27;20019;-79
2023/01/01 03:41:41;;;;;;;6.82;2.08;;;;;;;14.80;100.00;100889.31;5346607;27;20024;-79
2023/01/01 03:44:32;;;;;;;6.45;2.10;;;;;;;14.87;100.00;100901.06;5339231;27;20024;-80
2023/01/01 03:47:05;;;;;;;5.32;1.92;;;;;;;14.77;100.00;100909.28;5315422;27;20020;-80
2023/01/01 03:49:37;;;;;;;7.80;2.08;;;;;;;14.66;100.00;100928.44;5326078;28;20092;-80
2023/01/01 03:52:20;;;;;;;7.25;2.20;;;;;;;14.70;100.00;100917.16;5344920;27;20540;-80
2023/01/01 03:55:07;;;;;;;6.60;1.80;;;;;;;14.75;100.00;100914.00;5346826;27;20076;-81
2023/01/01 03:57:57;;;;;;;5.93;2.10;;;;;;;14.78;100.00;100910.09;5346236;27;20053;-80
2023/01/01 04:00:36;;;;;;;5.03;1.58;;;;;;;14.71;100.00;100918.03;5340626;27;20086;-80
2023/01/01 04:03:14;;;;;;;11.85;2.65;;;;;;;14.61;100.00;100918.19;5346188;27;20085;-80
2023/01/01 04:05:46;;;;;;;8.23;2.70;;;;;;;14.65;100.00;100927.56;5345125;27;20353;-80
2023/01/01 04:08:17;;;;;;;6.72;1.80;;;;;;;14.71;100.00;100934.97;5347578;27;20039;-79
2023/01/01 04:10:55;;;;;;;6.43;2.00;;;;;;;14.70;100.00;100929.75;5339213;27;20024;-80
2023/01/01 04:13:27;;;;;;;6.18;2.10;;;;;;;14.64;100.00;100928.59;5325115;28;20020;-81
2023/01/01 04:15:58;;;;;;;9.93;1.50;;;;;;;14.62;100.00;100938.66;5333648;27;20015;-80
2023/01/01 04:18:29;;;;;;;7.30;2.20;;;;;;;14.53;100.00;100934.22;5338531;27;20056;-79
2023/01/01 04:21:01;;;;;;;5.63;2.63;;;;;;;14.59;100.00;100927.41;5334989;27;20032;-80
2023/01/01 04:23:33;;;;;;;8.40;1.85;;;;;;;14.57;100.00;100940.97;5332809;27;20508;-78
2023/01/01 04:26:04;;;;;;;5.03;1.90;;;;;;;14.61;100.00;100920.03;5337972;27;20027;-79
2023/01/01 04:28:36;;;;;;;6.07;1.65;;;;;;;14.55;100.00;100911.59;5338287;27;20156;-80
2023/01/01 04:31:08;;;;;;;6.50;2.30;;;;;;;14.53;100.00;100934.22;5340754;27;20023;-80
2023/01/01 04:33:39;;;;;;;5.10;1.55;;;;;;;14.53;100.00;100923.50;5340077;27;20153;-80
2023/01/01 04:36:11;;;;;;;7.03;1.70;;;;;;;14.48;100.00;100937.44;5337398;27;20158;-79
2023/01/01 04:38:42;;;;;;;9.05;1.88;;;;;;;14.38;100.00;100939.44;5331080;27;20039;-80
2023/01/01 04:41:13;;;;;;;11.95;2.45;;;;;;;14.23;100.00;100952.63;5333513;27;20032;-80
2023/01/01 04:43:49;;;;;;;5.25;1.60;;;;;;;14.33;100.00;100958.69;5315177;27;20019;-80
2023/01/01 04:46:21;;;;;;;5.80;2.17;;;;;;;14.24;100.00;100978.47;5316130;27;20015;-80
2023/01/01 04:48:53;;;;;;;5.70;2.30;;;;;;;14.18;100.00;100949.59;5341352;27;20274;-79
2023/01/01 04:51:24;;;;;;;7.00;1.80;;;;;;;14.27;100.00;100974.59;5340100;27;20034;-79
2023/01/01 04:53:58;;;;;;;5.47;1.63;;;;;;;14.26;100.00;100959.53;5316415;27;20081;-79
2023/01/01 04:56:29;;;;;;;5.85;1.77;;;;;;;14.31;100.00;100966.06;5326741;27;20434;-80
2023/01/01 04:59:01;;;;;;;7.10;2.17;;;;;;;14.26;100.00;100968.41;5328210;27;20035;-79
2023/01/01 05:01:32;;;;;;;9.48;1.90;;;;;;;14.29;100.00;100972.63;5328778;27;20384;-80
2023/01/01 05:04:03;;;;;;;6.25;1.80;;;;;;;14.27;100.00;100980.81;5329459;27;20448;-79
2023/01/01 05:06:36;;;;;;;6.95;2.45;;;;;;;14.26;100.00;100987.19;5328283;27;20118;-80
2023/01/01 05:09:09;;;;;;;7.32;1.88;;;;;;;14.25;100.00;100987.34;5337796;27;20042;-80
2023/01/01 05:11:40;;;;;;;6.53;2.00;;;;;;;14.19;100.00;101000.41;5334290;27;20138;-79
2023/01/01 05:14:12;;;;;;;8.07;2.25;;;;;;;14.11;100.00;100992.34;5332268;27;20076;-80
2023/01/01 05:16:43;;;;;;;6.13;2.42;;;;;;;14.23;100.00;100994.72;5331966;27;20032;-79
2023/01/01 05:19:14;;;;;;;5.40;1.83;;;;;;;14.17;100.00;101009.63;5329465;27;20105;-80
2023/01/01 05:21:45;;;;;;;6.32;1.65;;;;;;;14.14;100.00;101001.91;5336164;27;20213;-80
2023/01/01 05:24:17;;;;;;;6.90;1.98;;;;;;;14.09;100.00;101026.50;5336657;27;20024;-80
2023/01/01 05:26:48;;;;;;;8.10;2.00;;;;;;;14.10;100.00;101040.78;5336858;27;20016;-80
2023/01/01 05:29:21;;;;;;;6.82;1.90;;;;;;;14.13;100.00;101051.16;5333974;27;20229;-80
2023/01/01 05:31:52;;;;;;;7.25;1.80;;;;;;;14.14;100.00;101051.00;5335402;27;20024;-80
2023/01/01 05:34:24;;;;;;;10.32;2.60;;;;;;;14.13;100.00;101059.22;5344436;27;20024;-79
2023/01/01 05:36:55;;;;;;;7.65;1.60;;;;;;;14.10;100.00;101055.03;5343047;27;20020;-80
2023/01/01 05:39:27;;;;;;;4.13;2.00;;;;;;;14.07;100.00;101060.69;5325137;27;20085;-78
2023/01/01 05:41:58;;;;;;;13.23;2.53;;;;;;;14.10;100.00;101048.81;5319723;27;20034;-80
2023/01/01 05:44:29;;;;;;;10.65;2.42;;;;;;;14.06;100.00;101061.72;5341079;27;20056;-80
2023/01/01 05:47:00;;;;;;;5.65;2.08;;;;;;;13.99;100.00;101063.38;5349071;27;20114;-80
2023/01/01 05:49:33;;;;;;;8.63;2.00;;;;;;;13.93;100.00;101080.91;5348035;27;20079;-80
2023/01/01 05:52:04;;;;;;;8.43;2.25;;;;;;;13.83;100.00;101064.06;5330055;27;20131;-78
2023/01/01 05:54:35;;;;;;;6.13;2.00;;;;;;;13.92;100.00;101078.38;5357987;27;20482;-80
2023/01/01 05:57:06;;;;;;;9.52;2.20;;;;;;;13.77;100.00;101070.91;5355648;27;20058;-80
2023/01/01 05:59:38;;;;;;;6.63;2.33;;;;;;;13.82;100.00;101117.88;5351484;27;33125;-77
2023/01/01 06:02:09;;;;;;;7.05;2.20;;;;;;;13.91;100.00;101093.63;5355049;27;20056;-79
2023/01/01 06:04:40;;;;;;;6.55;2.40;;;;;;;13.80;100.00;101099.28;5348040;27;20020;-78
2023/01/01 06:07:11;;;;;;;8.90;2.65;;;;;;;13.92;100.00;101110.56;5328539;27;20024;-79
2023/01/01 06:09:43;;;;;;;8.55;2.40;;;;;;;13.92;100.00;101097.16;5331617;27;20054;-78
2023/01/01 06:12:14;;;;;;;10.05;2.33;;;;;;;13.90;100.00;101107.19;5340844;27;20054;-78
2023/01/01 06:14:45;;;;;;;9.45;2.40;;;;;;;13.91;100.00;101108.88;5342252;27;20020;-78
2023/01/01 06:17:17;;;;;;;6.88;2.10;;;;;;;13.84;100.00;101116.72;5326704;27;20039;-80
2023/01/01 06:19:48;;;;;;;5.30;2.25;;;;;;;13.87;100.00;101124.44;5338995;27;20046;-79
2023/01/01 06:22:19;;;;;;;9.25;2.33;;;;;;;13.77;100.00;101121.03;5344862;27;20507;-78
2023/01/01 06:24:51;;;;;;;7.90;2.35;;;;;;;13.75;100.00;101134.59;5341651;27;20130;-78
2023/01/01 06:27:22;;;;;;;5.43;1.85;;;;;;;13.55;100.00;101155.38;5352572;27;20115;-78
2023/01/01 06:29:53;;;;;;;11.15;2.50;;;;;;;13.14;100.00;101184.41;5340628;27;20024;-81
2023/01/01 06:32:24;;;;;;;6.65;2.20;;;;;;;12.77;100.00;101177.28;5358564;27;20018;-79
2023/01/01 06:34:56;;;;;;;6.63;2.05;;;;;;;12.39;100.00;101197.00;5341336;27;20024;-79
2023/01/01 06:37:28;;;;;;;6.38;2.58;;;;;;;12.21;100.00;101202.28;5337111;27;20621;-79
2023/01/01 06:39:59;;;;;;;7.13;2.80;;;;;;;12.01;100.00;101193.44;5334278;27;20019;-79
2023/01/01 06:42:30;;;;;;;8.43;2.25;;;;;;;11.94;100.00;101198.53;5341138;27;20032;-81
2023/01/01 06:45:02;;;;;;;9.75;3.67;;;;;;;11.95;100.00;101200.19;5342859;27;20028;-80
2023/01/01 06:47:34;;;;;;;7.28;2.83;;;;;;;11.84;100.00;101224.38;5316024;27;20032;-79
2023/01/01 06:50:06;;;;;;;6.65;2.97;;;;;;;11.68;100.00;101208.94;5337060;27;20061;-80
2023/01/01 06:52:37;;;;;;;8.48;3.20;;;;;;;11.60;100.00;101224.81;5342251;27;20061;-80
2023/01/01 06:55:08;;;;;;;7.75;3.22;;;;;;;11.50;100.00;101228.31;5335729;27;20048;-80
2023/01/01 06:57:40;;;;;;;6.53;2.90;;;;;;;11.47;100.00;101251.78;5338531;27;20472;-80
2023/01/01 07:00:12;;;;;;;7.95;2.60;;;;;;;11.41;100.00;101234.47;5323809;27;20217;-80
2023/01/01 07:02:43;;;;;;;7.97;2.92;;;;;;;11.32;100.00;101241.47;5341240;27;20023;-80
2023/01/01 07:05:14;;;;;;;7.05;2.92;;;;;;;11.32;100.00;101244.16;5337883;27;32828;-80
2023/01/01 07:07:46;;;;;;;6.78;2.67;;;;;;;11.30;100.00;101243.44;5335128;27;20025;-79
2023/01/01 07:10:17;;;;;;;9.30;2.90;;;;;;;11.25;100.00;101245.69;5339431;27;20020;-80
2023/01/01 07:12:48;;;;;;;6.97;3.13;;;;;;;11.26;100.00;101259.91;5333946;27;20020;-79
2023/01/01 07:15:20;;;;;;;7.43;2.95;;;;;;;11.24;100.00;101275.22;5336342;27;20376;-80
2023/01/01 07:17:51;;;;;;;8.23;2.50;;;;;;;11.20;100.00;101263.94;5338545;27;20031;-80
2023/01/01 07:20:22;;;;;;;10.20;2.33;;;;;;;11.24;100.00;101259.19;5341242;27;20036;-79
2023/01/01 07:22:54;;;;;;;6.80;2.65;;;;;;;11.23;100.00;101255.66;5346155;27;20080;-79
2023/01/01 07:25:25;;;;;;;4.10;1.35;;;;;;;11.22;100.00;101256.66;5341435;27;20114;-79
2023/01/01 07:27:56;;;;;;;5.78;1.50;;;;;;;11.19;100.00;101266.78;5345207;27;20027;-79
2023/01/01 07:30:27;;;;;;;6.38;1.65;;;;;;;11.19;100.00;101261.44;5347683;27;20110;-80
2023/01/01 07:32:59;;;;;;;7.75;1.75;;;;;;;11.13;100.00;101277.00;5328498;27;20030;-80
2023/01/01 07:35:30;;;;;;;4.88;1.38;;;;;;;11.04;100.00;101283.16;5327683;27;20032;-79
2023/01/01 07:38:01;;;;;;;9.40;1.77;;;;;;;11.04;100.00;101290.31;5329042;27;20030;-79
2023/01/01 07:40:33;;;;;;;9.57;1.77;;;;;;;11.00;100.00;101294.25;5346327;27;20032;-79
2023/01/01 07:43:04;;;;;;;6.80;1.95;;;;;;;11.24;100.00;101294.75;5346764;27;20541;-79
2023/01/01 07:45:36;;;;;;;9.15;2.25;;;;;;;11.18;100.00;101295.28;5329891;27;20035;-79
2023/01/01 07:48:13;;;;;;;5.28;1.55;;;;;;;11.16;100.00;101299.91;5328370;27;20022;-79
2023/01/01 07:50:44;;;;;;;7.20;1.73;;;;;;;11.08;100.00;101308.59;5342874;27;20453;-79
2023/01/01 07:53:16;;;;;;;6.82;1.98;;;;;;;11.02;100.00;101319.81;5354007;27;20454;-79
2023/01/01 07:55:47;;;;;;;6.05;2.08;;;;;;;10.92;100.00;101322.44;5344878;27;20020;-79
2023/01/01 07:58:19;;;;;;;7.20;1.88;;;;;;;10.88;100.00;101321.00;5347800;27;20055;-77
2023/01/01 08:00:50;;;;;;;4.10;1.42;;;;;;;10.91;100.00;101330.59;5346770;27;20032;-78
2023/01/01 08:03:21;;;;;;;5.10;1.98;;;;;;;10.91;100.00;101346.59;5347409;27;20020;-80
2023/01/01 08:05:53;;;;;;;6.05;1.88;;;;;;;10.95;100.00;101346.19;5317884;27;20032;-79
2023/01/01 08:08:24;;;;;;;6.47;2.33;;;;;;;10.97;100.00;101365.59;5346470;27;20102;-79
2023/01/01 08:11:00;;;;;;;5.32;2.22;;;;;;;10.99;100.00;101368.13;5344943;27;20349;-80
2023/01/01 08:13:31;;;;;;;7.47;2.27;;;;;;;10.96;100.00;101371.06;5328258;27;20951;-78
2023/01/01 08:16:03;;;;;;;9.77;2.63;;;;;;;10.85;100.00;101366.66;5343585;27;20277;-79
2023/01/01 08:18:35;;;;;;;9.73;2.20;;;;;;;10.84;100.00;101380.97;5328028;27;20040;-80
2023/01/01 08:21:06;;;;;;;5.32;1.95;;;;;;;10.81;100.00;101359.88;5353399;27;20994;-79
2023/01/01 08:23:37;;;;;;;9.63;2.50;;;;;;;10.81;100.00;101364.38;5366062;27;20023;-79
2023/01/01 08:26:15;;;;;;;7.70;2.40;;;;;;;10.83;100.00;101359.75;5356227;27;20119;-79
2023/01/01 08:28:46;;;;;;;10.50;2.67;;;;;;;10.90;100.00;101364.41;5366274;27;20027;-79
2023/01/01 08:31:17;;;;;;;12.50;2.40;;;;;;;10.94;100.00;101375.69;5364586;27;20459;-79
2023/01/01 08:33:49;;;;;;;10.82;2.63;;;;;;;10.98;100.00;101385.13;5365096;27;20023;-79
2023/01/01 08:36:20;;;;;;;7.25;2.13;;;;;;;10.97;100.00;101381.63;5362581;27;20058;-79
2023/01/01 08:38:51;;;;;;;7.72;2.30;;;;;;;10.92;100.00;101377.63;5360286;27;20037;-79
2023/01/01 08:41:23;;;;;;;7.97;3.20;;;;;;;10.94;100.00;101397.88;5358303;27;20038;-79
2023/01/01 08:43:54;;;;;;;7.75;2.67;;;;;;;10.91;100.00;101399.97;5364165;27;20413;-79
2023/01/01 08:46:26;;;;;;;8.13;2.35;;;;;;;10.92;100.00;101405.19;5359209;27;20036;-79
2023/01/01 08:48:57;;;;;;;8.60;2.83;;;;;;;10.90;100.00;101392.94;5357776;27;20007;-80
2023/01/01 08:51:28;;;;;;;9.30;2.38;;;;;;;10.88;100.00;101401.06;5363806;27;20447;-79
2023/01/01 08:53:59;;;;;;;11.55;2.55;;;;;;;10.90;100.00;101401.78;5359324;27;20036;-80
2023/01/01 08:56:31;;;;;;;11.60;2.88;;;;;;;10.83;100.00;101426.47;5363594;27;20027;-80
2023/01/01 08:59:03;;;;;;;10.82;2.70;;;;;;;10.82;100.00;101419.41;5361153;27;20023;-81
2023/01/01 09:01:34;;;;;;;9.00;2.70;;;;;;;10.96;100.00;101422.63;5361516;27;20116;-78
2023/01/01 09:04:07;;;;;;;8.88;2.70;;;;;;;11.05;100.00;101404.97;5361740;27;20027;-79
2023/01/01 09:06:38;;;;;;;9.50;2.40;;;;;;;11.00;100.00;101396.50;5358499;27;20050;-79
2023/01/01 09:09:09;;;;;;;7.88;2.58;;;;;;;11.07;100.00;101399.50;5353919;27;20042;-80
2023/01/01 09:11:50;;;;;;;6.15;2.60;;;;;;;11.13;100.00;101405.16;5355982;27;20029;-79
2023/01/01 09:14:22;;;;;;;12.30;3.33;;;;;;;11.16;100.00;101415.56;5355070;27;20050;-80
2023/01/01 09:16:53;;;;;;;10.57;2.85;;;;;;;11.27;100.00;101424.47;5353128;27;20028;-79
2023/01/01 09:19:25;;;;;;;11.48;2.58;;;;;;;11.32;100.00;101427.59;5366433;27;20110;-80
2023/01/01 09:21:57;;;;;;;9.88;2.72;;;;;;;11.25;100.00;101405.06;5367178;27;20053;-79
2023/01/01 09:24:28;;;;;;;9.65;2.80;;;;;;;11.31;100.00;101407.22;5364149;27;20023;-80
2023/01/01 09:26:59;;;;;;;7.18;2.65;;;;;;;11.38;100.00;101405.72;5363502;27;20023;-80
2023/01/01 09:29:30;;;;;;;10.88;2.88;;;;;;;11.29;100.00;101425.19;5357634;27;20023;-80
2023/01/01 09:32:02;;;;;;;11.27;3.65;;;;;;;11.28;100.00;101426.19;5359084;27;20024;-79
2023/01/01 09:34:33;;;;;;;10.48;3.03;;;;;;;11.25;100.00;101434.44;5353189;27;20027;-79
2023/01/01 09:37:05;;;;;;;10.32;3.15;;;;;;;11.24;100.00;101420.25;5354955;27;20023;-79
2023/01/01 09:39:36;;;;;;;8.63;2.67;;;;;;;11.27;100.00;101435.16;5345430;27;20027;-79
2023/01/01 09:42:42;;;;;;;11.27;3.08;;;;;;;11.30;100.00;101441.06;5354794;27;20037;-79
2023/01/01 09:45:24;;;;;;;10.15;3.30;;;;;;;11.38;100.00;101424.41;5299517;28;20023;-78
2023/01/01 09:48:05;;;;;;;10.13;2.85;;;;;;;11.46;100.00;101432.56;5361370;27;20042;-79
2023/01/01 09:50:43;;;;;;;12.45;3.20;;;;;;;11.48;100.00;101433.31;5353396;27;20102;-79
2023/01/01 09:53:30;;;;;;;10.35;3.55;;;;;;;11.52;100.00;101441.91;5353965;27;20042;-78
2023/01/01 09:56:03;;;;;;;8.52;3.38;;;;;;;11.50;100.00;101442.03;5368396;27;20030;-78
2023/01/01 09:58:36;;;;;;;11.70;4.18;;;;;;;11.50;100.00;101436.69;5360659;27;20023;-78
2023/01/01 10:01:11;;;;;;;7.97;3.17;;;;;;;11.48;100.00;101427.97;5353594;27;20062;-78
2023/01/01 10:03:51;;;;;;;11.98;4.00;;;;;;;11.49;100.00;101420.78;5359760;27;20055;-78
2023/01/01 10:06:32;;;;;;;11.10;3.58;;;;;;;11.51;100.00;101430.34;5368052;27;20026;-80
2023/01/01 10:09:16;;;;;;;8.93;3.53;;;;;;;11.48;100.00;101432.44;5355958;27;20059;-80
2023/01/01 10:11:58;;;;;;;10.80;3.70;;;;;;;11.48;100.00;101430.63;5353117;27;20027;-80
2023/01/01 10:14:35;;;;;;;13.55;3.63;;;;;;;11.62;100.00;101432.06;5368347;27;20038;-79
2023/01/01 10:17:20;;;;;;;12.82;3.67;;;;;;;11.76;100.00;101424.69;5355239;27;20038;-80
2023/01/01 10:19:56;;;;;;;10.80;3.53;;;;;;;11.82;100.00;101424.97;5341436;27;20032;-80
2023/01/01 10:22:33;;;;;;;9.73;3.65;;;;;;;11.93;100.00;101432.06;5342784;27;20039;-80
2023/01/01 10:25:13;;;;;;;14.52;4.20;;;;;;;12.04;100.00;101433.78;5347103;27;20169;-80
2023/01/01 10:28:12;;;;;;;11.32;3.80;;;;;;;12.15;100.00;101428.34;5348215;27;20066;-79
2023/01/01 10:30:43;;;;;;;12.55;3.33;;;;;;;12.26;100.00;101432.72;5330102;27;20028;-79
2023/01/01 10:33:15;;;;;;;10.50;3.00;;;;;;;12.38;100.00;101444.13;5337933;27;20125;-81
2023/01/01 10:35:50;;;;;;;11.23;3.40;;;;;;;12.43;100.00;101426.66;5337429;27;20028;-81
2023/01/01 10:38:24;;;;;;;11.20;3.08;;;;;;;12.62;100.00;101425.81;5338312;27;21686;-81
2023/01/01 10:41:06;;;;;;;7.22;3.10;;;;;;;12.73;100.00;101432.00;5311920;28;20476;-81
2023/01/01 10:43:37;;;;;;;13.35;3.50;;;;;;;12.81;100.00;101419.59;5347776;27;20023;-81
2023/01/01 10:46:17;;;;;;;7.45;3.03;;;;;;;12.89;100.00;101423.41;5345806;27;20024;-81
2023/01/01 10:49:06;;;;;;;13.13;3.63;;;;;;;13.09;100.00;101422.34;5341820;27;20080;-81
2023/01/01 10:51:44;;;;;;;11.32;3.00;;;;;;;13.22;100.00;101430.09;5346503;27;20051;-81
2023/01/01 10:54:32;;;;;;;10.77;2.97;;;;;;;13.36;100.00;101428.81;5328883;27;20372;-81
2023/01/01 10:57:28;;;;;;;10.60;2.95;;;;;;;13.39;100.00;101423.16;5347235;27;20031;-81
2023/01/01 11:00:09;;;;;;;12.73;3.67;;;;;;;13.51;100.00;101421.97;5320830;27;20028;-81
2023/01/01 11:02:40;;;;;;;15.75;3.92;;;;;;;13.50;100.00;101422.13;5339872;27;20032;-81
2023/01/01 11:05:16;;;;;;;9.63;3.40;;;;;;;13.72;100.00;101432.44;5339253;27;20031;-80
2023/01/01 11:07:48;;;;;;;13.32;2.95;;;;;;;13.74;100.00;101427.78;5336999;27;20023;-80
2023/01/01 11:10:29;;;;;;;8.70;2.60;;;;;;;13.74;100.00;101429.63;5323232;27;20047;-80
2023/01/01 11:13:01;;;;;;;9.07;2.63;;;;;;;13.78;100.00;101428.34;5342412;27;20035;-80
2023/01/01 11:15:37;;;;;;;9.00;3.15;;;;;;;13.87;100.00;101437.34;5321837;27;20122;-80
2023/01/01 11:18:14;;;;;;;12.70;2.95;;;;;;;13.91;100.00;101452.13;5320776;27;20475;-80
2023/01/01 11:20:51;;;;;;;8.43;2.22;;;;;;;14.00;100.00;101441.31;5339983;27;20047;-80
2023/01/01 11:23:38;;;;;;;6.88;2.58;;;;;;;13.96;100.00;101455.22;5336935;27;20494;-80
2023/01/01 11:26:12;;;;;;;8.93;3.28;;;;;;;13.95;100.00;101462.38;5336700;27;20131;-80
2023/01/01 11:29:01;;;;;;;8.30;2.63;;;;;;;14.09;100.00;101454.84;5341949;27;20028;-80
2023/01/01 11:31:37;;;;;;;8.13;2.78;;;;;;;14.12;100.00;101451.88;5323550;27;20036;-80
2023/01/01 11:34:39;;;;;;;9.05;2.60;;;;;;;14.25;100.00;101446.97;5346554;27;20031;-79
2023/01/01 11:37:13;;;;;;;11.98;3.17;;;;;;;14.50;100.00;101441.88;5334143;27;20085;-80
2023/01/01 11:39:48;;;;;;;7.55;2.60;;;;;;;14.52;100.00;101443.38;5339642;27;20043;-80
2023/01/01 11:42:25;;;;;;;10.07;2.50;;;;;;;14.41;100.00;101443.63;5307815;27;20036;-80
2023/01/01 11:45:05;;;;;;;10.65;3.03;;;;;;;14.30;100.00;101430.41;5339770;27;20035;-80
2023/01/01 11:47:38;;;;;;;12.13;3.17;;;;;;;14.10;100.00;101430.56;5314872;27;20030;-80
2023/01/01 11:50:12;;;;;;;14.07;3.15;;;;;;;14.13;100.00;101437.44;5339187;27;20473;-80
2023/01/01 11:52:46;;;;;;;11.13;3.35;;;;;;;14.03;100.00;101445.56;5339068;27;20362;-80